sensor_id;sensor_type;location;lat;lon;timestamp;pressure;altitude;pressure_sealevel;temperature;humidity
69982;BME280;57319;56.274;43.980;2023-02-12T00:02:16;98822.41;;;-4.29;72.87
69982;BME280;57319;56.274;43.980;2023-02-12T00:04:42;98823.31;;;-4.27;72.88
69982;BME280;57319;56.274;43.980;2023-02-12T00:07:07;98813.22;;;-4.28;72.91
69982;BME280;57319;56.274;43.980;2023-02-12T00:09:35;98807.97;;;-4.34;73.41
69982;BME280;57319;56.274;43.980;2023-02-12T00:12:00;98800.31;;;-4.39;73.27
69982;BME280;57319;56.274;43.980;2023-02-12T00:14:26;98810.47;;;-4.34;73.16
69982;BME280;57319;56.274;43.980;2023-02-12T00:16:51;98807.88;;;-4.37;73.27
69982;BME280;57319;56.274;43.980;2023-02-12T00:19:17;98808.81;;;-4.35;72.96
69982;BME280;57319;56.274;43.980;2023-02-12T00:21:42;98805.28;;;-4.40;72.82
69982;BME280;57319;56.274;43.980;2023-02-12T00:24:08;98805.38;;;-4.37;72.83
69982;BME280;57319;56.274;43.980;2023-02-12T00:26:35;98789.41;;;-4.39;72.94
69982;BME280;57319;56.274;43.980;2023-02-12T00:29:00;98785.88;;;-4.45;72.76
69982;BME280;57319;56.274;43.980;2023-02-12T00:31:28;98786.69;;;-4.46;72.88
69982;BME280;57319;56.274;43.980;2023-02-12T00:33:54;98780.78;;;-4.48;72.74
69982;BME280;57319;56.274;43.980;2023-02-12T00:36:22;98781.63;;;-4.47;72.94
69982;BME280;57319;56.274;43.980;2023-02-12T00:38:51;98762.50;;;-4.44;72.99
69982;BME280;57319;56.274;43.980;2023-02-12T00:41:17;98786.50;;;-4.52;72.81
69982;BME280;57319;56.274;43.980;2023-02-12T00:43:42;98774.16;;;-4.44;73.36
69982;BME280;57319;56.274;43.980;2023-02-12T00:46:08;98769.00;;;-4.49;72.98
69982;BME280;57319;56.274;43.980;2023-02-12T00:48:34;98783.28;;;-4.48;73.29
69982;BME280;57319;56.274;43.980;2023-02-12T00:51:01;98755.69;;;-4.46;72.80
69982;BME280;57319;56.274;43.980;2023-02-12T00:53:27;98768.97;;;-4.50;72.96
69982;BME280;57319;56.274;43.980;2023-02-12T00:55:52;98769.00;;;-4.49;73.33
69982;BME280;57319;56.274;43.980;2023-02-12T00:58:18;98762.19;;;-4.53;72.72
69982;BME280;57319;56.274;43.980;2023-02-12T01:00:43;98761.44;;;-4.50;73.11
69982;BME280;57319;56.274;43.980;2023-02-12T01:03:09;98747.13;;;-4.53;72.92
69982;BME280;57319;56.274;43.980;2023-02-12T01:05:35;98757.91;;;-4.55;72.59
69982;BME280;57319;56.274;43.980;2023-02-12T01:08:01;98751.13;;;-4.58;72.46
69982;BME280;57319;56.274;43.980;2023-02-12T01:10:27;98758.59;;;-4.61;72.80
69982;BME280;57319;56.274;43.980;2023-02-12T01:12:53;98763.56;;;-4.63;73.31
69982;BME280;57319;56.274;43.980;2023-02-12T01:15:19;98758.53;;;-4.63;72.97
69982;BME280;57319;56.274;43.980;2023-02-12T01:17:45;98767.00;;;-4.59;72.84
69982;BME280;57319;56.274;43.980;2023-02-12T01:20:15;98760.44;;;-4.55;72.22
69982;BME280;57319;56.274;43.980;2023-02-12T01:22:44;98757.03;;;-4.57;72.76
69982;BME280;57319;56.274;43.980;2023-02-12T01:25:11;98750.03;;;-4.66;72.53
69982;BME280;57319;56.274;43.980;2023-02-12T01:27:38;98742.41;;;-4.69;73.54
69982;BME280;57319;56.274;43.980;2023-02-12T01:30:05;98750.91;;;-4.66;73.97
69982;BME280;57319;56.274;43.980;2023-02-12T01:32:33;98744.97;;;-4.68;73.05
69982;BME280;57319;56.274;43.980;2023-02-12T01:34:58;98751.75;;;-4.65;73.44
69982;BME280;57319;56.274;43.980;2023-02-12T01:37:24;98735.63;;;-4.72;73.26
69982;BME280;57319;56.274;43.980;2023-02-12T01:39:49;98739.81;;;-4.72;73.62
69982;BME280;57319;56.274;43.980;2023-02-12T01:42:15;98738.09;;;-4.73;73.67
69982;BME280;57319;56.274;43.980;2023-02-12T01:47:37;98736.38;;;-4.74;74.01
69982;BME280;57319;56.274;43.980;2023-02-12T01:50:03;98738.06;;;-4.75;74.77
69982;BME280;57319;56.274;43.980;2023-02-12T01:52:33;98735.53;;;-4.75;74.68
69982;BME280;57319;56.274;43.980;2023-02-12T01:55:03;98737.13;;;-4.77;75.13
69982;BME280;57319;56.274;43.980;2023-02-12T01:57:32;98739.69;;;-4.75;75.32
69982;BME280;57319;56.274;43.980;2023-02-12T02:00:00;98744.72;;;-4.75;75.94
69982;BME280;57319;56.274;43.980;2023-02-12T02:02:30;98748.72;;;-4.82;76.03
69982;BME280;57319;56.274;43.980;2023-02-12T02:05:01;98737.88;;;-4.80;76.03
69982;BME280;57319;56.274;43.980;2023-02-12T02:07:28;98744.63;;;-4.79;76.73
69982;BME280;57319;56.274;43.980;2023-02-12T02:09:54;98748.81;;;-4.79;76.96
69982;BME280;57319;56.274;43.980;2023-02-12T02:12:20;98749.59;;;-4.80;77.16
69982;BME280;57319;56.274;43.980;2023-02-12T02:15:05;98743.22;;;-4.96;78.09
69982;BME280;57319;56.274;43.980;2023-02-12T02:36:38;98737.63;;;-5.13;80.68
69982;BME280;57319;56.274;43.980;2023-02-12T02:41:58;98735.75;;;-5.20;80.97
69982;BME280;57319;56.274;43.980;2023-02-12T02:44:38;98735.75;;;-5.20;80.91
69982;BME280;57319;56.274;43.980;2023-02-12T02:47:09;98731.56;;;-5.20;80.91
69982;BME280;57319;56.274;43.980;2023-02-12T02:49:45;98734.72;;;-5.25;80.28
69982;BME280;57319;56.274;43.980;2023-02-12T02:52:36;98722.88;;;-5.30;81.35
69982;BME280;57319;56.274;43.980;2023-02-12T02:55:08;98730.53;;;-5.25;80.72
69982;BME280;57319;56.274;43.980;2023-02-12T02:57:51;98726.22;;;-5.29;80.81
69982;BME280;57319;56.274;43.980;2023-02-12T03:00:34;98728.91;;;-5.24;81.58
69982;BME280;57319;56.274;43.980;2023-02-12T03:03:14;98728.91;;;-5.24;81.43
69982;BME280;57319;56.274;43.980;2023-02-12T03:05:45;98727.16;;;-5.27;81.68
69982;BME280;57319;56.274;43.980;2023-02-12T03:08:35;98733.13;;;-5.23;81.72
69982;BME280;57319;56.274;43.980;2023-02-12T03:11:06;98733.31;;;-5.17;80.94
69982;BME280;57319;56.274;43.980;2023-02-12T03:13:46;98727.28;;;-5.22;81.31
69982;BME280;57319;56.274;43.980;2023-02-12T03:16:24;98726.50;;;-5.21;81.35
69982;BME280;57319;56.274;43.980;2023-02-12T03:21:31;98720.72;;;-5.19;80.85
69982;BME280;57319;56.274;43.980;2023-02-12T03:24:04;98722.41;;;-5.19;80.69
69982;BME280;57319;56.274;43.980;2023-02-12T03:29:03;98718.97;;;-5.21;81.29
69982;BME280;57319;56.274;43.980;2023-02-12T03:34:18;98724.69;;;-5.25;81.45
69982;BME280;57319;56.274;43.980;2023-02-12T03:45:37;98712.00;;;-5.30;81.97
69982;BME280;57319;56.274;43.980;2023-02-12T03:48:21;98709.34;;;-5.33;82.42
69982;BME280;57319;56.274;43.980;2023-02-12T03:53:19;98712.75;;;-5.33;82.35
69982;BME280;57319;56.274;43.980;2023-02-12T03:55:48;98712.03;;;-5.29;82.71
69982;BME280;57319;56.274;43.980;2023-02-12T03:58:20;98712.00;;;-5.30;82.81
69982;BME280;57319;56.274;43.980;2023-02-12T04:00:49;98716.31;;;-5.26;82.69
69982;BME280;57319;56.274;43.980;2023-02-12T04:03:15;98703.50;;;-5.34;82.33
69982;BME280;57319;56.274;43.980;2023-02-12T04:05:40;98714.38;;;-5.33;82.67
69982;BME280;57319;56.274;43.980;2023-02-12T04:08:08;98709.34;;;-5.33;82.75
69982;BME280;57319;56.274;43.980;2023-02-12T04:10:45;98714.59;;;-5.27;82.18
69982;BME280;57319;56.274;43.980;2023-02-12T04:13:37;98716.13;;;-5.31;82.89
69982;BME280;57319;56.274;43.980;2023-02-12T04:16:42;98715.34;;;-5.30;82.76
69982;BME280;57319;56.274;43.980;2023-02-12T04:19:09;98703.31;;;-5.40;82.50
69982;BME280;57319;56.274;43.980;2023-02-12T04:22:05;98711.03;;;-5.34;82.62
69982;BME280;57319;56.274;43.980;2023-02-12T04:27:28;98716.28;;;-5.28;82.33
69982;BME280;57319;56.274;43.980;2023-02-12T04:30:03;98716.59;;;-5.17;82.22
69982;BME280;57319;56.274;43.980;2023-02-12T04:32:36;98719.06;;;-5.18;81.60
69982;BME280;57319;56.274;43.980;2023-02-12T04:37:58;98725.94;;;-5.13;82.11
69982;BME280;57319;56.274;43.980;2023-02-12T04:40:25;98726.16;;;-5.06;81.99
69982;BME280;57319;56.274;43.980;2023-02-12T04:42:52;98719.47;;;-5.06;82.09
69982;BME280;57319;56.274;43.980;2023-02-12T04:45:28;98722.69;;;-5.10;81.62
69982;BME280;57319;56.274;43.980;2023-02-12T04:47:53;98730.22;;;-5.10;81.16
69982;BME280;57319;56.274;43.980;2023-02-12T04:50:19;98727.69;;;-5.10;81.91
69982;BME280;57319;56.274;43.980;2023-02-12T04:52:45;98730.91;;;-5.14;81.73
69982;BME280;57319;56.274;43.980;2023-02-12T04:55:11;98733.41;;;-5.14;82.13
69982;BME280;57319;56.274;43.980;2023-02-12T04:57:38;98727.88;;;-5.05;81.93
69982;BME280;57319;56.274;43.980;2023-02-12T05:00:05;98742.31;;;-4.98;81.52
69982;BME280;57319;56.274;43.980;2023-02-12T05:02:32;98735.63;;;-4.98;81.39
69982;BME280;57319;56.274;43.980;2023-02-12T05:04:58;98734.94;;;-4.94;81.31
69982;BME280;57319;56.274;43.980;2023-02-12T05:07:24;98732.34;;;-4.97;81.46
69982;BME280;57319;56.274;43.980;2023-02-12T05:09:49;98742.63;;;-4.89;81.57
69982;BME280;57319;56.274;43.980;2023-02-12T05:12:15;98746.06;;;-4.85;80.84
69982;BME280;57319;56.274;43.980;2023-02-12T05:14:40;98737.75;;;-4.84;80.88
69982;BME280;57319;56.274;43.980;2023-02-12T05:17:06;98739.47;;;-4.83;80.95
69982;BME280;57319;56.274;43.980;2023-02-12T05:19:32;98746.13;;;-4.84;80.73
69982;BME280;57319;56.274;43.980;2023-02-12T05:21:57;98739.94;;;-4.94;80.55
69982;BME280;57319;56.274;43.980;2023-02-12T05:24:23;98750.25;;;-4.86;81.16
69982;BME280;57319;56.274;43.980;2023-02-12T05:26:49;98746.94;;;-4.85;80.47
69982;BME280;57319;56.274;43.980;2023-02-12T05:29:15;98745.19;;;-4.87;80.70
69982;BME280;57319;56.274;43.980;2023-02-12T05:31:40;98752.56;;;-4.92;80.69
69982;BME280;57319;56.274;43.980;2023-02-12T05:34:09;98757.88;;;-4.83;80.65
69982;BME280;57319;56.274;43.980;2023-02-12T05:36:35;98758.63;;;-4.85;80.29
69982;BME280;57319;56.274;43.980;2023-02-12T05:39:00;98765.66;;;-4.75;80.36
69982;BME280;57319;56.274;43.980;2023-02-12T05:41:26;98762.16;;;-4.80;80.24
69982;BME280;57319;56.274;43.980;2023-02-12T05:43:52;98757.09;;;-4.82;80.29
69982;BME280;57319;56.274;43.980;2023-02-12T05:46:18;98744.56;;;-4.80;79.61
69982;BME280;57319;56.274;43.980;2023-02-12T05:48:44;98753.91;;;-4.76;80.17
69982;BME280;57319;56.274;43.980;2023-02-12T05:51:16;98755.69;;;-4.73;79.33
69982;BME280;57319;56.274;43.980;2023-02-12T05:53:44;98762.06;;;-4.83;79.77
69982;BME280;57319;56.274;43.980;2023-02-12T05:58:43;98765.00;;;-4.69;79.50
69982;BME280;57319;56.274;43.980;2023-02-12T06:01:17;98759.28;;;-4.65;79.51
69982;BME280;57319;56.274;43.980;2023-02-12T06:03:44;98762.69;;;-4.63;79.38
69982;BME280;57319;56.274;43.980;2023-02-12T06:06:10;98768.88;;;-4.53;79.42
69982;BME280;57319;56.274;43.980;2023-02-12T06:08:36;98773.94;;;-4.52;79.38
69982;BME280;57319;56.274;43.980;2023-02-12T06:11:05;98770.69;;;-4.49;79.04
69982;BME280;57319;56.274;43.980;2023-02-12T06:13:31;98762.22;;;-4.51;79.46
69982;BME280;57319;56.274;43.980;2023-02-12T06:15:58;98766.16;;;-4.60;79.06
69982;BME280;57319;56.274;43.980;2023-02-12T06:18:24;98771.03;;;-4.64;79.20
69982;BME280;57319;56.274;43.980;2023-02-12T06:20:50;98778.53;;;-4.66;78.67
69982;BME280;57319;56.274;43.980;2023-02-12T06:23:15;98768.59;;;-4.63;78.00
69982;BME280;57319;56.274;43.980;2023-02-12T06:25:41;98774.41;;;-4.64;78.44
69982;BME280;57319;56.274;43.980;2023-02-12T06:28:07;98774.13;;;-4.71;78.14
69982;BME280;57319;56.274;43.980;2023-02-12T06:30:33;98777.88;;;-4.60;78.70
69982;BME280;57319;56.274;43.980;2023-02-12T06:32:59;98776.41;;;-4.53;77.88
69982;BME280;57319;56.274;43.980;2023-02-12T06:35:25;98781.97;;;-4.62;77.96
69982;BME280;57319;56.274;43.980;2023-02-12T06:37:51;98782.16;;;-4.57;77.98
69982;BME280;57319;56.274;43.980;2023-02-12T06:40:17;98786.50;;;-4.52;77.31
69982;BME280;57319;56.274;43.980;2023-02-12T06:42:43;98786.47;;;-4.53;77.79
69982;BME280;57319;56.274;43.980;2023-02-12T06:45:08;98780.66;;;-4.51;77.59
69982;BME280;57319;56.274;43.980;2023-02-12T06:47:34;98780.03;;;-4.45;77.78
69982;BME280;57319;56.274;43.980;2023-02-12T06:49:59;98788.66;;;-4.37;77.29
69982;BME280;57319;56.274;43.980;2023-02-12T06:52:26;98787.13;;;-4.32;76.64
69982;BME280;57319;56.274;43.980;2023-02-12T06:54:51;98786.94;;;-4.38;76.83
69982;BME280;57319;56.274;43.980;2023-02-12T06:57:17;98786.06;;;-4.38;76.57
69982;BME280;57319;56.274;43.980;2023-02-12T06:59:43;98793.59;;;-4.38;76.62
69982;BME280;57319;56.274;43.980;2023-02-12T07:02:10;98802.19;;;-4.32;76.49
69982;BME280;57319;56.274;43.980;2023-02-12T07:04:37;98793.06;;;-4.30;76.54
69982;BME280;57319;56.274;43.980;2023-02-12T07:07:04;98792.44;;;-4.22;76.51
69982;BME280;57319;56.274;43.980;2023-02-12T07:09:30;98800.97;;;-4.17;75.79
69982;BME280;57319;56.274;43.980;2023-02-12T07:11:57;98799.09;;;-4.24;75.42
69982;BME280;57319;56.274;43.980;2023-02-12T07:14:23;98800.09;;;-4.18;75.80
69982;BME280;57319;56.274;43.980;2023-02-12T07:16:50;98806.19;;;-4.11;75.26
69982;BME280;57319;56.274;43.980;2023-02-12T07:19:16;98807.72;;;-4.16;75.19
69982;BME280;57319;56.274;43.980;2023-02-12T07:21:42;98808.53;;;-4.17;74.87
69982;BME280;57319;56.274;43.980;2023-02-12T07:24:09;98807.72;;;-4.16;75.34
69982;BME280;57319;56.274;43.980;2023-02-12T07:26:36;98807.97;;;-4.07;74.67
69982;BME280;57319;56.274;43.980;2023-02-12T07:29:02;98802.16;;;-4.06;74.79
69982;BME280;57319;56.274;43.980;2023-02-12T07:31:28;98805.66;;;-4.01;74.85
69982;BME280;57319;56.274;43.980;2023-02-12T07:33:56;98797.47;;;-3.95;74.22
69982;BME280;57319;56.274;43.980;2023-02-12T07:36:23;98805.88;;;-3.93;74.35
69982;BME280;57319;56.274;43.980;2023-02-12T07:38:49;98812.66;;;-3.90;74.03
69982;BME280;57319;56.274;43.980;2023-02-12T07:41:23;98814.13;;;-3.97;74.02
69982;BME280;57319;56.274;43.980;2023-02-12T07:43:54;98821.03;;;-3.92;74.54
69982;BME280;57319;56.274;43.980;2023-02-12T07:46:30;98821.22;;;-3.85;74.15
69982;BME280;57319;56.274;43.980;2023-02-12T07:48:59;98817.09;;;-3.83;73.87
69982;BME280;57319;56.274;43.980;2023-02-12T07:51:25;98818.91;;;-3.79;74.08
69982;BME280;57319;56.274;43.980;2023-02-12T07:53:51;98820.78;;;-3.72;73.12
69982;BME280;57319;56.274;43.980;2023-02-12T07:56:19;98829.75;;;-3.80;73.55
69982;BME280;57319;56.274;43.980;2023-02-12T07:58:47;98841.69;;;-3.73;73.70
69982;BME280;57319;56.274;43.980;2023-02-12T08:01:27;98843.53;;;-3.67;73.43
69982;BME280;57319;56.274;43.980;2023-02-12T08:03:57;98845.50;;;-3.59;73.02
69982;BME280;57319;56.274;43.980;2023-02-12T08:06:25;98853.03;;;-3.59;73.60
69982;BME280;57319;56.274;43.980;2023-02-12T08:08:55;98849.81;;;-3.54;73.61
69982;BME280;57319;56.274;43.980;2023-02-12T08:11:22;98843.06;;;-3.55;73.50
69982;BME280;57319;56.274;43.980;2023-02-12T08:13:48;98852.16;;;-3.59;73.72
69982;BME280;57319;56.274;43.980;2023-02-12T08:16:17;98848.09;;;-3.55;73.58
69982;BME280;57319;56.274;43.980;2023-02-12T08:18:44;98845.59;;;-3.54;73.50
69982;BME280;57319;56.274;43.980;2023-02-12T08:21:15;98852.47;;;-3.48;73.53
69982;BME280;57319;56.274;43.980;2023-02-12T08:23:41;98848.28;;;-3.48;73.22
69982;BME280;57319;56.274;43.980;2023-02-12T08:26:09;98852.78;;;-3.37;72.99
69982;BME280;57319;56.274;43.980;2023-02-12T08:28:38;98863.00;;;-3.31;72.91
69982;BME280;57319;56.274;43.980;2023-02-12T08:31:06;98863.94;;;-3.29;72.77
69982;BME280;57319;56.274;43.980;2023-02-12T08:33:32;98870.75;;;-3.25;72.26
69982;BME280;57319;56.274;43.980;2023-02-12T08:36:06;98871.63;;;-3.23;71.83
69982;BME280;57319;56.274;43.980;2023-02-12T08:38:34;98865.75;;;-3.24;71.85
69982;BME280;57319;56.274;43.980;2023-02-12T08:41:05;98871.59;;;-3.25;72.08
69982;BME280;57319;56.274;43.980;2023-02-12T08:43:31;98871.94;;;-3.43;72.06
69982;BME280;57319;56.274;43.980;2023-02-12T08:46:18;98869.22;;;-3.50;72.62
69982;BME280;57319;56.274;43.980;2023-02-12T08:48:45;98871.09;;;-3.43;72.70
69982;BME280;57319;56.274;43.980;2023-02-12T08:51:19;98871.28;;;-3.35;72.99
69982;BME280;57319;56.274;43.980;2023-02-12T08:53:47;98885.00;;;-3.26;72.17
69982;BME280;57319;56.274;43.980;2023-02-12T08:56:15;98871.28;;;-3.35;72.18
69982;BME280;57319;56.274;43.980;2023-02-12T08:58:41;98883.41;;;-3.22;72.08
69982;BME280;57319;56.274;43.980;2023-02-12T09:01:13;98880.97;;;-3.19;72.72
69982;BME280;57319;56.274;43.980;2023-02-12T09:03:40;98881.84;;;-3.18;72.08
69982;BME280;57319;56.274;43.980;2023-02-12T09:06:07;98891.94;;;-3.18;71.79
69982;BME280;57319;56.274;43.980;2023-02-12T09:08:34;98887.66;;;-3.21;72.42
69982;BME280;57319;56.274;43.980;2023-02-12T09:11:27;98892.72;;;-3.19;72.15
69982;BME280;57319;56.274;43.980;2023-02-12T09:14:04;98889.38;;;-3.20;71.93
69982;BME280;57319;56.274;43.980;2023-02-12T09:16:33;98892.13;;;-3.11;71.91
69982;BME280;57319;56.274;43.980;2023-02-12T09:18:59;98892.84;;;-3.15;72.04
69982;BME280;57319;56.274;43.980;2023-02-12T09:21:25;98898.03;;;-3.10;72.23
69982;BME280;57319;56.274;43.980;2023-02-12T09:23:51;98900.72;;;-3.04;72.27
69982;BME280;57319;56.274;43.980;2023-02-12T09:26:19;98897.31;;;-3.06;71.90
69982;BME280;57319;56.274;43.980;2023-02-12T09:28:46;98902.59;;;-2.97;71.97
69982;BME280;57319;56.274;43.980;2023-02-12T09:31:15;98900.94;;;-2.96;71.17
69982;BME280;57319;56.274;43.980;2023-02-12T09:33:41;98904.56;;;-2.86;71.51
69982;BME280;57319;56.274;43.980;2023-02-12T09:36:10;98902.06;;;-2.85;71.72
69982;BME280;57319;56.274;43.980;2023-02-12T09:38:38;98909.84;;;-2.77;71.35
69982;BME280;57319;56.274;43.980;2023-02-12T09:46:27;98922.81;;;-2.63;71.34
69982;BME280;57319;56.274;43.980;2023-02-12T09:48:59;98928.66;;;-2.64;71.32
69982;BME280;57319;56.274;43.980;2023-02-12T09:51:32;98935.63;;;-2.56;70.97
69982;BME280;57319;56.274;43.980;2023-02-12T09:54:06;98933.28;;;-2.48;71.14
69982;BME280;57319;56.274;43.980;2023-02-12T09:56:36;98935.16;;;-2.41;70.89
69982;BME280;57319;56.274;43.980;2023-02-12T09:59:05;98936.03;;;-2.40;70.55
69982;BME280;57319;56.274;43.980;2023-02-12T10:01:32;98937.41;;;-2.51;70.94
69982;BME280;57319;56.274;43.980;2023-02-12T10:03:59;98930.78;;;-2.48;70.90
69982;BME280;57319;56.274;43.980;2023-02-12T10:06:27;98929.84;;;-2.51;71.07
69982;BME280;57319;56.274;43.980;2023-02-12T10:09:25;98943.34;;;-2.49;71.12
69982;BME280;57319;56.274;43.980;2023-02-12T10:25:32;98940.00;;;-2.48;70.86
69982;BME280;57319;56.274;43.980;2023-02-12T10:28:06;98942.50;;;-2.50;70.97
69982;BME280;57319;56.274;43.980;2023-02-12T10:30:43;98945.97;;;-2.45;71.24
69982;BME280;57319;56.274;43.980;2023-02-12T10:33:39;98951.00;;;-2.45;71.61
69982;BME280;57319;56.274;43.980;2023-02-12T10:36:43;98949.16;;;-2.52;71.77
69982;BME280;57319;56.274;43.980;2023-02-12T10:41:55;98954.81;;;-2.61;72.36
69982;BME280;57319;56.274;43.980;2023-02-12T10:44:23;98957.91;;;-2.69;72.60
69982;BME280;57319;56.274;43.980;2023-02-12T10:46:49;98957.56;;;-2.82;73.09
69982;BME280;57319;56.274;43.980;2023-02-12T10:49:17;98964.28;;;-2.82;72.81
69982;BME280;57319;56.274;43.980;2023-02-12T10:52:23;98972.56;;;-2.86;73.02
69982;BME280;57319;56.274;43.980;2023-02-12T10:54:46;98972.41;;;-2.93;73.45
69982;BME280;57319;56.274;43.980;2023-02-12T10:57:25;98975.63;;;-2.97;73.82
69982;BME280;57319;56.274;43.980;2023-02-12T10:59:53;98987.34;;;-2.97;73.60
69982;BME280;57319;56.274;43.980;2023-02-12T11:02:30;98989.00;;;-2.99;74.15
69982;BME280;57319;56.274;43.980;2023-02-12T11:04:57;98992.53;;;-2.93;74.00
69982;BME280;57319;56.274;43.980;2023-02-12T11:07:24;98992.25;;;-3.02;73.83
69982;BME280;57319;56.274;43.980;2023-02-12T11:09:51;98999.22;;;-2.93;73.68
69982;BME280;57319;56.274;43.980;2023-02-12T11:15:18;98999.38;;;-2.88;73.60
69982;BME280;57319;56.274;43.980;2023-02-12T11:17:58;99010.25;;;-2.90;73.23
69982;BME280;57319;56.274;43.980;2023-02-12T11:20:57;98998.84;;;-3.05;73.33
69982;BME280;57319;56.274;43.980;2023-02-12T11:23:28;99008.09;;;-3.06;73.36
69982;BME280;57319;56.274;43.980;2023-02-12T11:28:53;99018.88;;;-3.10;73.58
69982;BME280;57319;56.274;43.980;2023-02-12T11:31:27;99017.28;;;-3.07;73.67
69982;BME280;57319;56.274;43.980;2023-02-12T11:34:07;99022.28;;;-3.08;73.40
69982;BME280;57319;56.274;43.980;2023-02-12T11:36:49;99025.63;;;-3.09;73.62
69982;BME280;57319;56.274;43.980;2023-02-12T11:41:50;99045.22;;;-2.99;73.59
69982;BME280;57319;56.274;43.980;2023-02-12T11:44:31;99045.94;;;-3.03;73.67
69982;BME280;57319;56.274;43.980;2023-02-12T11:47:10;99047.47;;;-3.08;73.60
69982;BME280;57319;56.274;43.980;2023-02-12T11:49:47;99053.22;;;-3.12;73.56
69982;BME280;57319;56.274;43.980;2023-02-12T11:52:19;99064.81;;;-3.17;73.90
69982;BME280;57319;56.274;43.980;2023-02-12T11:54:47;99064.00;;;-3.16;73.82
69982;BME280;57319;56.274;43.980;2023-02-12T12:00:13;99066.81;;;-3.07;74.18
69982;BME280;57319;56.274;43.980;2023-02-12T12:02:46;99068.56;;;-3.04;73.87
69982;BME280;57319;56.274;43.980;2023-02-12T12:05:33;99075.19;;;-3.07;73.97
69982;BME280;57319;56.274;43.980;2023-02-12T12:08:04;99074.22;;;-3.12;74.35
69982;BME280;57319;56.274;43.980;2023-02-12T12:11:05;99072.41;;;-3.16;73.77
69982;BME280;57319;56.274;43.980;2023-02-12T12:13:43;99089.88;;;-3.20;74.15
69982;BME280;57319;56.274;43.980;2023-02-12T12:16:21;99088.09;;;-3.23;74.48
69982;BME280;57319;56.274;43.980;2023-02-12T12:19:15;99092.22;;;-3.27;74.37
69982;BME280;57319;56.274;43.980;2023-02-12T12:25:07;99093.47;;;-3.39;74.72
69982;BME280;57319;56.274;43.980;2023-02-12T12:27:42;99105.28;;;-3.37;74.72
69982;BME280;57319;56.274;43.980;2023-02-12T12:33:25;99112.75;;;-3.40;74.88
69982;BME280;57319;56.274;43.980;2023-02-12T12:46:30;99130.50;;;-3.35;75.56
69982;BME280;57319;56.274;43.980;2023-02-12T13:00:34;99144.94;;;-3.55;75.42
69982;BME280;57319;56.274;43.980;2023-02-12T13:06:11;99160.47;;;-3.43;75.60
69982;BME280;57319;56.274;43.980;2023-02-12T13:20:14;99175.50;;;-3.45;76.08
69982;BME280;57319;56.274;43.980;2023-02-12T13:25:35;99182.03;;;-3.50;76.18
69982;BME280;57319;56.274;43.980;2023-02-12T13:28:08;99191.47;;;-3.44;76.02
69982;BME280;57319;56.274;43.980;2023-02-12T13:30:42;99187.88;;;-3.51;75.60
69982;BME280;57319;56.274;43.980;2023-02-12T13:33:24;99196.13;;;-3.55;76.13
69982;BME280;57319;56.274;43.980;2023-02-12T13:35:55;99192.47;;;-3.63;76.28
69982;BME280;57319;56.274;43.980;2023-02-12T13:38:31;99201.88;;;-3.58;76.30
69982;BME280;57319;56.274;43.980;2023-02-12T13:41:02;99199.22;;;-3.62;76.23
69982;BME280;57319;56.274;43.980;2023-02-12T13:43:38;99204.03;;;-3.68;75.38
69982;BME280;57319;56.274;43.980;2023-02-12T13:46:25;99202.09;;;-3.76;75.77
69982;BME280;57319;56.274;43.980;2023-02-12T13:49:23;99205.34;;;-3.78;76.20
69982;BME280;57319;56.274;43.980;2023-02-12T13:57:14;99218.16;;;-3.72;76.30
69982;BME280;57319;56.274;43.980;2023-02-12T13:59:43;99220.44;;;-3.78;76.64
69982;BME280;57319;56.274;43.980;2023-02-12T14:04:52;99222.97;;;-3.78;76.50
69982;BME280;57319;56.274;43.980;2023-02-12T14:07:19;99229.50;;;-3.83;76.83
69982;BME280;57319;56.274;43.980;2023-02-12T14:14:55;99251.59;;;-3.97;77.49
69982;BME280;57319;56.274;43.980;2023-02-12T14:20:25;99268.69;;;-4.11;77.56
69982;BME280;57319;56.274;43.980;2023-02-12T14:22:58;99263.19;;;-4.23;77.90
69982;BME280;57319;56.274;43.980;2023-02-12T14:27:53;99282.88;;;-4.34;77.97
69982;BME280;57319;56.274;43.980;2023-02-12T14:30:30;99281.28;;;-4.32;77.82
69982;BME280;57319;56.274;43.980;2023-02-12T14:33:19;99283.13;;;-4.28;78.54
69982;BME280;57319;56.274;43.980;2023-02-12T14:35:45;99286.63;;;-4.24;79.04
69982;BME280;57319;56.274;43.980;2023-02-12T14:40:40;99299.19;;;-4.24;79.08
69982;BME280;57319;56.274;43.980;2023-02-12T14:43:28;99297.34;;;-4.29;79.39
69982;BME280;57319;56.274;43.980;2023-02-12T14:45:57;99309.78;;;-4.32;79.66
69982;BME280;57319;56.274;43.980;2023-02-12T14:48:51;99296.31;;;-4.34;79.70
69982;BME280;57319;56.274;43.980;2023-02-12T14:51:41;99297.66;;;-4.42;79.67
69982;BME280;57319;56.274;43.980;2023-02-12T14:54:16;99322.13;;;-4.38;79.59
69982;BME280;57319;56.274;43.980;2023-02-12T14:56:47;99319.34;;;-4.44;79.68
69982;BME280;57319;56.274;43.980;2023-02-12T14:59:19;99325.84;;;-4.49;80.85
69982;BME280;57319;56.274;43.980;2023-02-12T15:01:47;99324.84;;;-4.53;80.86
69982;BME280;57319;56.274;43.980;2023-02-12T15:06:54;99328.47;;;-4.46;81.04
69982;BME280;57319;56.274;43.980;2023-02-12T15:09:39;99331.56;;;-4.53;80.56
69982;BME280;57319;56.274;43.980;2023-02-12T15:12:21;99338.16;;;-4.55;81.38
69982;BME280;57319;56.274;43.980;2023-02-12T15:15:20;99340.41;;;-4.62;81.07
69982;BME280;57319;56.274;43.980;2023-02-12T15:20:50;99353.94;;;-4.58;81.47
69982;BME280;57319;56.274;43.980;2023-02-12T15:25:59;99371.13;;;-4.67;81.31
69982;BME280;57319;56.274;43.980;2023-02-12T15:28:35;99370.84;;;-4.75;81.50
69982;BME280;57319;56.274;43.980;2023-02-12T15:31:03;99381.06;;;-4.70;82.27
69982;BME280;57319;56.274;43.980;2023-02-12T15:33:36;99381.66;;;-4.76;82.16
69982;BME280;57319;56.274;43.980;2023-02-12T15:36:04;99372.81;;;-4.87;82.28
69982;BME280;57319;56.274;43.980;2023-02-12T15:38:36;99366.88;;;-4.89;82.09
69982;BME280;57319;56.274;43.980;2023-02-12T15:41:03;99382.88;;;-4.87;82.14
69982;BME280;57319;56.274;43.980;2023-02-12T15:43:31;99380.13;;;-4.92;82.53
69982;BME280;57319;56.274;43.980;2023-02-12T15:46:04;99380.22;;;-4.90;82.56
69982;BME280;57319;56.274;43.980;2023-02-12T15:48:35;99392.31;;;-4.82;82.57
69982;BME280;57319;56.274;43.980;2023-02-12T15:51:14;99396.59;;;-4.79;82.54